createdAt,value
2019-02-25T00:00:34.670Z,6.80
2019-02-25T00:03:03.851Z,7.20
2019-02-25T00:05:33.028Z,7.70
2019-02-25T00:08:02.149Z,6.87
2019-02-25T00:10:31.427Z,6.97
2019-02-25T00:13:00.632Z,7.13
2019-02-25T00:15:30.217Z,6.40
2019-02-25T00:17:59.428Z,6.40
2019-02-25T00:20:28.626Z,6.40
2019-02-25T00:22:57.730Z,7.20
2019-02-25T00:25:26.911Z,6.57
2019-02-25T00:27:56.019Z,6.40
2019-02-25T00:30:25.603Z,7.30
2019-02-25T00:32:54.820Z,6.40
2019-02-25T00:35:24.190Z,6.57
2019-02-25T00:37:53.409Z,6.17
2019-02-25T00:40:22.593Z,7.13
2019-02-25T00:42:51.712Z,6.40
2019-02-25T00:45:20.987Z,6.17
2019-02-25T00:47:50.207Z,5.97
2019-02-25T00:50:20.986Z,6.23
2019-02-25T00:52:50.202Z,6.37
2019-02-25T00:55:19.589Z,6.97
2019-02-25T00:57:48.704Z,6.80
2019-02-25T01:00:20.916Z,7.57
2019-02-25T01:02:50.344Z,6.80
2019-02-25T01:05:19.915Z,6.77
2019-02-25T01:07:49.232Z,7.10
2019-02-25T01:10:19.207Z,7.13
2019-02-25T01:12:48.419Z,7.57
2019-02-25T01:15:18.096Z,7.27
2019-02-25T01:17:47.321Z,6.90
2019-02-25T01:20:18.064Z,6.97
2019-02-25T01:22:47.384Z,7.07
2019-02-25T01:25:20.478Z,7.27
2019-02-25T01:27:49.582Z,6.27
2019-02-25T01:30:20.472Z,7.10
2019-02-25T01:32:49.689Z,7.90
2019-02-25T01:35:19.077Z,7.53
2019-02-25T01:37:48.316Z,8.10
2019-02-25T01:40:17.490Z,7.10
2019-02-25T01:42:46.599Z,7.87
2019-02-25T01:45:20.341Z,7.70
2019-02-25T01:47:49.715Z,7.10
2019-02-25T01:50:18.926Z,7.80
2019-02-25T01:52:48.207Z,7.70
2019-02-25T01:55:17.334Z,7.43
2019-02-25T01:57:46.527Z,7.30
2019-02-25T02:00:17.715Z,7.33
2019-02-25T02:02:46.984Z,8.17
2019-02-25T02:05:16.210Z,7.87
2019-02-25T02:07:45.507Z,7.13
2019-02-25T02:10:18.065Z,7.27
2019-02-25T02:12:47.249Z,8.33
2019-02-25T02:15:20.282Z,8.40
2019-02-25T02:17:49.659Z,7.97
2019-02-25T02:20:19.184Z,7.70
2019-02-25T02:22:48.363Z,8.17
2019-02-25T02:25:17.693Z,8.70
2019-02-25T02:27:47.077Z,8.57
2019-02-25T02:30:21.013Z,7.70
2019-02-25T02:32:50.289Z,8.23
2019-02-25T02:35:19.509Z,8.40
2019-02-25T02:37:48.682Z,8.23
2019-02-25T02:40:17.905Z,7.23
2019-02-25T02:42:56.226Z,8.33
2019-02-25T02:45:30.947Z,7.80
2019-02-25T02:48:03.241Z,8.67
2019-02-25T02:50:32.444Z,7.57
2019-02-25T02:53:01.624Z,7.63
2019-02-25T02:55:30.843Z,8.87
2019-02-25T02:58:00.023Z,8.53
2019-02-25T03:00:29.243Z,8.07
2019-02-25T03:02:58.421Z,8.07
2019-02-25T03:05:27.540Z,8.47
2019-02-25T03:07:56.733Z,8.10
2019-02-25T03:10:25.949Z,8.37
2019-02-25T03:12:55.234Z,8.00
2019-02-25T03:15:24.352Z,8.73
2019-02-25T03:17:53.628Z,7.73
2019-02-25T03:20:22.849Z,8.43
2019-02-25T03:22:51.971Z,8.13
2019-02-25T03:25:21.252Z,7.87
2019-02-25T03:27:50.384Z,7.57
2019-02-25T03:30:22.865Z,8.83
2019-02-25T03:32:52.075Z,8.67
2019-02-25T03:35:21.243Z,8.90
2019-02-25T03:37:50.459Z,7.93
2019-02-25T03:40:24.197Z,8.27
2019-02-25T03:42:53.420Z,9.40
2019-02-25T03:45:22.705Z,21.30
2019-02-25T03:47:51.832Z,11.17
2019-02-25T03:50:21.210Z,8.57
2019-02-25T03:52:50.333Z,9.13
2019-02-25T03:55:24.000Z,7.47
2019-02-25T03:57:53.118Z,8.03
2019-02-25T04:00:26.142Z,8.30
2019-02-25T04:02:55.369Z,8.07
2019-02-25T04:05:24.641Z,7.93
2019-02-25T04:07:53.853Z,7.20
2019-02-25T04:10:23.042Z,7.73
2019-02-25T04:12:52.138Z,7.73
2019-02-25T04:15:26.294Z,7.07
2019-02-25T04:17:55.407Z,7.37
2019-02-25T04:20:24.584Z,7.33
2019-02-25T04:22:53.912Z,7.73
2019-02-25T04:25:23.074Z,7.30
2019-02-25T04:27:52.192Z,7.90
2019-02-25T04:30:21.483Z,7.80
2019-02-25T04:32:50.799Z,6.60
2019-02-25T04:35:19.987Z,6.93
2019-02-25T04:37:49.100Z,7.43
2019-02-25T04:40:18.395Z,7.23
2019-02-25T04:42:47.509Z,7.00
2019-02-25T04:45:22.749Z,7.03
2019-02-25T04:47:51.843Z,6.67
2019-02-25T04:50:21.055Z,7.47
2019-02-25T04:52:50.229Z,6.67
2019-02-25T04:55:19.535Z,7.07
2019-02-25T04:57:48.626Z,8.17
2019-02-25T05:00:25.003Z,7.77
2019-02-25T05:02:54.223Z,7.37
2019-02-25T05:05:23.320Z,7.47
2019-02-25T05:07:52.502Z,7.60
2019-02-25T05:10:21.622Z,7.17
2019-02-25T05:13:01.490Z,6.77
2019-02-25T05:15:31.893Z,7.47
2019-02-25T05:18:01.090Z,7.73
2019-02-25T05:20:30.513Z,7.70
2019-02-25T05:22:59.683Z,7.93
2019-02-25T05:25:28.796Z,7.13
2019-02-25T05:27:57.976Z,7.17
2019-02-25T05:30:27.089Z,7.57
2019-02-25T05:32:56.275Z,7.47
2019-02-25T05:35:25.485Z,7.07
2019-02-25T05:37:54.671Z,7.60
2019-02-25T05:40:23.796Z,7.73
2019-02-25T05:42:52.976Z,6.43
2019-02-25T05:45:22.110Z,7.33
2019-02-25T05:47:51.286Z,7.80
2019-02-25T05:50:21.199Z,7.70
2019-02-25T05:52:50.484Z,7.53
2019-02-25T05:55:19.797Z,7.47
2019-02-25T05:57:48.976Z,7.43
2019-02-25T06:00:21.885Z,6.97
2019-02-25T06:02:51.179Z,7.80
2019-02-25T06:05:20.380Z,7.87
2019-02-25T06:07:49.948Z,7.37
2019-02-25T06:10:19.165Z,6.77
2019-02-25T06:12:48.347Z,7.07
2019-02-25T06:15:18.875Z,7.40
2019-02-25T06:17:48.056Z,8.03
2019-02-25T06:20:17.665Z,7.17
2019-02-25T06:22:47.083Z,7.90
2019-02-25T06:25:17.124Z,7.40
2019-02-25T06:27:46.408Z,7.43
2019-02-25T06:30:19.751Z,7.57
2019-02-25T06:32:48.981Z,7.10
2019-02-25T06:35:18.257Z,6.60
2019-02-25T06:37:47.483Z,5.47
2019-02-25T06:40:20.529Z,6.50
2019-02-25T06:42:49.655Z,7.23
2019-02-25T06:45:31.300Z,8.67
2019-02-25T06:48:00.607Z,9.43
2019-02-25T06:50:29.795Z,11.57
2019-02-25T06:52:58.922Z,10.50
2019-02-25T06:55:28.097Z,9.70
2019-02-25T06:57:57.215Z,7.87
2019-02-25T07:00:26.704Z,8.87
2019-02-25T07:02:55.824Z,8.27
2019-02-25T07:05:41.705Z,8.80
2019-02-25T07:08:12.502Z,9.57
2019-02-25T07:10:51.984Z,9.13
2019-02-25T07:13:22.884Z,8.43
2019-02-25T07:15:56.665Z,8.73
2019-02-25T07:18:27.356Z,10.57
2019-02-25T07:20:58.129Z,11.53
2019-02-25T07:23:31.547Z,10.67
2019-02-25T07:26:18.038Z,15.93
2019-02-25T07:28:48.746Z,16.13
2019-02-25T07:31:22.435Z,12.47
2019-02-25T07:34:05.250Z,9.67
2019-02-25T07:36:38.975Z,10.90
2019-02-25T07:39:10.015Z,9.30
2019-02-25T07:41:46.197Z,11.50
2019-02-25T07:44:19.817Z,10.73
2019-02-25T07:47:08.280Z,8.93
2019-02-25T07:49:39.099Z,7.77
2019-02-25T07:52:09.978Z,8.23
2019-02-25T07:54:49.393Z,8.47
2019-02-25T07:57:25.661Z,9.10
2019-02-25T08:00:02.100Z,10.37
2019-02-25T08:02:32.879Z,9.17
2019-02-25T08:05:03.596Z,8.83
2019-02-25T08:07:36.839Z,9.60
2019-02-25T08:10:13.426Z,8.77
2019-02-25T08:12:46.942Z,8.87
2019-02-25T08:15:23.627Z,8.17
2019-02-25T08:17:57.051Z,7.80
2019-02-25T08:20:43.782Z,7.50
2019-02-25T08:23:23.262Z,7.70
2019-02-25T08:25:54.062Z,8.87
2019-02-25T08:28:24.856Z,8.73
2019-02-25T08:30:58.375Z,9.30
2019-02-25T08:33:30.783Z,10.30
2019-02-25T08:36:22.246Z,9.30
2019-02-25T08:38:59.156Z,9.27
2019-02-25T08:41:32.690Z,8.33
2019-02-25T08:44:03.454Z,8.80
2019-02-25T08:46:34.291Z,8.33
2019-02-25T08:49:05.234Z,8.53
2019-02-25T08:51:34.360Z,7.53
2019-02-25T08:54:03.839Z,7.17
2019-02-25T08:56:33.041Z,7.40
2019-02-25T08:59:02.531Z,7.67
2019-02-25T09:01:31.847Z,7.43
2019-02-25T09:04:01.039Z,7.87
2019-02-25T09:06:30.118Z,7.80
2019-02-25T09:08:59.465Z,7.63
2019-02-25T09:11:28.582Z,8.40
2019-02-25T09:13:57.758Z,7.97
2019-02-25T09:16:26.877Z,8.33
2019-02-25T09:18:57.911Z,6.90
2019-02-25T09:21:31.918Z,7.50
2019-02-25T09:23:57.953Z,7.47
2019-02-25T09:26:27.080Z,8.10
2019-02-25T09:28:57.360Z,7.50
2019-02-25T09:31:26.659Z,7.23
2019-02-25T09:33:55.842Z,6.70
2019-02-25T09:36:25.677Z,6.03
2019-02-25T09:38:56.660Z,6.17
2019-02-25T09:41:29.950Z,5.97
2019-02-25T09:43:56.532Z,6.37
2019-02-25T09:46:25.862Z,6.63
2019-02-25T09:48:55.055Z,6.43
2019-02-25T09:51:24.164Z,5.97
2019-02-25T09:53:55.027Z,5.67
2019-02-25T09:56:24.294Z,5.47
2019-02-25T09:58:53.399Z,5.13
2019-02-25T10:01:22.786Z,4.40
2019-02-25T10:03:51.915Z,4.40
2019-02-25T10:06:21.309Z,4.80
2019-02-25T10:08:50.436Z,5.63
2019-02-25T10:11:19.712Z,4.83
2019-02-25T10:13:48.835Z,4.53
2019-02-25T10:16:18.032Z,6.13
2019-02-25T10:18:47.141Z,3.80
2019-02-25T10:21:16.626Z,4.50
2019-02-25T10:23:45.739Z,3.80
2019-02-25T10:26:14.925Z,4.10
2019-02-25T10:28:44.037Z,4.33
2019-02-25T10:31:15.193Z,3.70
2019-02-25T10:33:44.124Z,4.07
2019-02-25T10:36:13.404Z,4.00
2019-02-25T10:38:42.535Z,3.60
2019-02-25T10:41:11.719Z,3.60
2019-02-25T10:43:40.853Z,3.63
2019-02-25T10:46:11.710Z,4.30
2019-02-25T10:48:41.096Z,3.57
2019-02-25T10:51:11.479Z,3.40
2019-02-25T10:53:41.036Z,3.20
2019-02-25T10:56:14.495Z,3.07
2019-02-25T10:58:43.803Z,2.80
2019-02-25T11:01:16.922Z,3.10
2019-02-25T11:03:45.671Z,2.47
2019-02-25T11:06:14.747Z,2.40
2019-02-25T11:08:45.774Z,2.67
2019-02-25T11:11:18.340Z,2.50
2019-02-25T11:13:47.260Z,2.70
2019-02-25T11:16:18.186Z,2.70
2019-02-25T11:18:47.193Z,2.60
2019-02-25T11:21:16.465Z,2.67
2019-02-25T11:23:47.125Z,2.30
2019-02-25T11:26:16.441Z,2.80
2019-02-25T11:28:45.845Z,2.53
2019-02-25T11:31:15.482Z,2.57
2019-02-25T11:33:45.885Z,2.40
2019-02-25T11:36:17.128Z,1.70
2019-02-25T11:38:46.028Z,1.77
2019-02-25T11:41:15.143Z,1.20
2019-02-25T11:43:46.381Z,1.63
2019-02-25T11:46:15.011Z,1.50
2019-02-25T11:48:44.260Z,1.50
2019-02-25T11:51:13.473Z,2.13
2019-02-25T11:53:42.748Z,2.20
2019-02-25T11:56:11.999Z,1.70
2019-02-25T11:58:41.270Z,1.40
2019-02-25T12:01:10.484Z,1.80
2019-02-25T12:03:39.671Z,2.23
2019-02-25T12:06:08.974Z,2.27
2019-02-25T12:08:38.264Z,2.57
2019-02-25T12:11:08.718Z,2.80
2019-02-25T12:13:37.970Z,2.07
2019-02-25T12:16:07.194Z,2.13
2019-02-25T12:18:36.375Z,2.10
2019-02-25T12:21:05.787Z,2.33
2019-02-25T12:23:34.974Z,2.27
2019-02-25T12:26:04.681Z,2.30
2019-02-25T12:28:33.860Z,2.50
2019-02-25T12:31:03.283Z,2.23
2019-02-25T12:33:32.456Z,2.83
2019-02-25T12:36:01.674Z,2.47
2019-02-25T12:38:30.939Z,2.00
2019-02-25T12:41:00.053Z,2.20
2019-02-25T12:43:29.342Z,2.10
2019-02-25T12:45:58.547Z,2.00
2019-02-25T12:48:27.824Z,2.20
2019-02-25T12:50:57.048Z,1.93
2019-02-25T12:53:26.263Z,1.87
2019-02-25T12:55:55.447Z,2.17
2019-02-25T12:58:24.558Z,1.80
2019-02-25T13:00:53.843Z,1.73
2019-02-25T13:03:22.958Z,1.90
2019-02-25T13:05:52.130Z,1.90
2019-02-25T13:08:21.218Z,1.83
2019-02-25T13:10:50.583Z,1.87
2019-02-25T13:13:19.702Z,1.60
2019-02-25T13:15:48.887Z,1.60
2019-02-25T13:18:18.001Z,1.40
2019-02-25T13:20:47.271Z,1.40
2019-02-25T13:23:16.371Z,1.83
2019-02-25T13:25:45.656Z,1.80
2019-02-25T13:28:14.783Z,1.90
2019-02-25T13:30:44.058Z,2.23
2019-02-25T13:33:13.169Z,1.90
2019-02-25T13:35:42.344Z,1.70
2019-02-25T13:38:11.467Z,1.63
2019-02-25T13:40:40.647Z,2.23
2019-02-25T13:43:09.760Z,2.13
2019-02-25T13:45:38.941Z,2.20
2019-02-25T13:48:08.057Z,1.80
2019-02-25T13:50:37.339Z,2.00
2019-02-25T13:53:08.122Z,1.93
2019-02-25T13:55:37.396Z,2.30
2019-02-25T13:58:06.596Z,1.53
2019-02-25T14:00:35.873Z,2.00
2019-02-25T14:03:05.186Z,1.87
2019-02-25T14:05:34.476Z,1.70
2019-02-25T14:08:03.699Z,2.00
2019-02-25T14:10:33.294Z,1.90
2019-02-25T14:13:02.884Z,1.93
2019-02-25T14:15:32.095Z,1.80
2019-02-25T14:18:01.531Z,2.00
2019-02-25T14:20:30.645Z,2.20
2019-02-25T14:23:00.639Z,2.63
2019-02-25T14:25:30.939Z,2.37
2019-02-25T14:28:02.566Z,2.00
2019-02-25T14:30:33.508Z,1.50
2019-02-25T14:33:02.026Z,1.77
2019-02-25T14:35:32.613Z,1.97
2019-02-25T14:38:09.572Z,1.90
2019-02-25T14:40:39.430Z,1.83
2019-02-25T14:43:10.549Z,2.07
2019-02-25T14:45:41.446Z,2.40
2019-02-25T14:48:10.530Z,1.40
2019-02-25T14:50:39.330Z,1.80
2019-02-25T14:53:11.440Z,1.57
2019-02-25T14:55:40.773Z,1.93
2019-02-25T14:58:12.540Z,1.70
2019-02-25T15:00:41.330Z,1.93
2019-02-25T15:03:10.612Z,1.90
2019-02-25T15:05:39.827Z,1.70
2019-02-25T15:08:09.903Z,1.90
2019-02-25T15:10:40.777Z,2.03
2019-02-25T15:13:10.737Z,1.67
2019-02-25T15:15:41.682Z,2.23
2019-02-25T15:18:10.685Z,1.90
2019-02-25T15:20:39.791Z,1.70
2019-02-25T15:23:12.494Z,1.80
2019-02-25T15:25:42.461Z,2.13
2019-02-25T15:28:11.884Z,2.23
2019-02-25T15:30:42.615Z,2.07
2019-02-25T15:33:11.995Z,2.60
2019-02-25T15:35:41.760Z,2.47
2019-02-25T15:38:12.038Z,2.40
2019-02-25T15:40:41.455Z,5.50
2019-02-25T15:43:17.780Z,2.80
2019-02-25T15:45:46.046Z,2.50
2019-02-25T15:48:17.997Z,3.10
2019-02-25T15:50:48.421Z,2.23
2019-02-25T15:53:18.287Z,3.87
2019-02-25T15:55:47.470Z,4.20
2019-02-25T15:58:16.969Z,3.00
2019-02-25T16:00:46.745Z,2.03
2019-02-25T16:03:16.742Z,1.50
2019-02-25T16:05:47.095Z,4.53
2019-02-25T16:08:20.930Z,2.57
2019-02-25T16:10:49.425Z,2.53
2019-02-25T16:13:18.892Z,1.80
2019-02-25T16:15:48.164Z,2.27
2019-02-25T16:18:17.772Z,2.20
2019-02-25T16:20:47.045Z,1.40
2019-02-25T16:23:17.397Z,1.50
2019-02-25T16:25:48.304Z,1.57
2019-02-25T16:28:17.603Z,1.77
2019-02-25T16:30:48.680Z,1.40
2019-02-25T16:33:17.815Z,1.60
2019-02-25T16:35:47.105Z,1.90
2019-02-25T16:38:16.219Z,2.03
2019-02-25T16:40:45.512Z,2.40
2019-02-25T16:43:14.733Z,2.00
2019-02-25T16:45:46.651Z,2.37
2019-02-25T16:48:17.130Z,2.53
2019-02-25T16:50:50.248Z,2.60
2019-02-25T16:53:20.226Z,1.80
2019-02-25T16:55:51.398Z,2.77
2019-02-25T16:58:20.401Z,3.23
2019-02-25T17:00:49.678Z,3.13
2019-02-25T17:03:19.191Z,2.30
2019-02-25T17:05:50.279Z,2.33
2019-02-25T17:08:20.115Z,2.57
2019-02-25T17:10:51.241Z,2.83
2019-02-25T17:13:20.374Z,4.13
2019-02-25T17:15:49.753Z,3.97
2019-02-25T17:18:18.962Z,3.70
2019-02-25T17:20:50.313Z,2.90
2019-02-25T17:23:19.026Z,3.10
2019-02-25T17:25:48.335Z,3.27
2019-02-25T17:28:20.149Z,3.43
2019-02-25T17:30:49.654Z,2.73
2019-02-25T17:33:19.186Z,2.03
2019-02-25T17:35:49.921Z,2.20
2019-02-25T17:38:20.923Z,2.20
2019-02-25T17:40:50.410Z,3.10
2019-02-25T17:43:20.244Z,8.23
2019-02-25T17:45:49.630Z,7.57
2019-02-25T17:48:20.993Z,6.10
2019-02-25T17:50:49.751Z,5.33
2019-02-25T17:53:19.240Z,16.77
2019-02-25T17:55:49.035Z,6.63
2019-02-25T17:58:19.816Z,3.80
2019-02-25T18:00:50.118Z,3.30
2019-02-25T18:03:19.560Z,3.33
2019-02-25T18:05:49.948Z,5.80
2019-02-25T18:08:19.243Z,4.80
2019-02-25T18:10:49.690Z,6.13
2019-02-25T18:13:19.511Z,7.97
2019-02-25T18:15:49.878Z,6.03
2019-02-25T18:18:21.843Z,6.00
2019-02-25T18:20:52.819Z,7.13
2019-02-25T18:23:21.837Z,6.23
2019-02-25T18:25:55.121Z,6.50
2019-02-25T18:28:22.597Z,6.57
2019-02-25T18:30:52.323Z,6.57
2019-02-25T18:33:23.066Z,6.37
2019-02-25T18:35:52.578Z,5.83
2019-02-25T18:38:23.272Z,6.03
2019-02-25T18:40:52.726Z,5.90
2019-02-25T18:43:22.587Z,5.90
2019-02-25T18:45:52.795Z,6.53
2019-02-25T18:48:23.277Z,7.23
2019-02-25T18:50:56.614Z,6.60
2019-02-25T18:53:25.012Z,6.60
2019-02-25T18:55:56.770Z,7.37
2019-02-25T18:58:26.237Z,8.60
2019-02-25T19:00:57.165Z,7.20
2019-02-25T19:03:26.941Z,8.60
2019-02-25T19:05:57.456Z,7.23
2019-02-25T19:08:28.930Z,7.80
2019-02-25T19:10:58.218Z,8.83
2019-02-25T19:13:29.395Z,9.27
2019-02-25T19:15:59.273Z,8.60
2019-02-25T19:18:29.428Z,9.30
2019-02-25T19:21:01.898Z,10.13
2019-02-25T19:23:33.083Z,10.60
2019-02-25T19:26:02.142Z,11.03
2019-02-25T19:28:31.352Z,11.10
2019-02-25T19:31:00.635Z,8.97
2019-02-25T19:33:31.278Z,10.67
2019-02-25T19:36:02.839Z,9.43
2019-02-25T19:38:33.975Z,11.57
2019-02-25T19:41:02.730Z,11.13
2019-02-25T19:43:32.075Z,11.57
2019-02-25T19:46:02.248Z,11.13
2019-02-25T19:48:33.602Z,11.20
2019-02-25T19:51:04.255Z,11.87
2019-02-25T19:53:35.810Z,12.23
2019-02-25T19:56:04.647Z,14.67
2019-02-25T19:58:35.920Z,16.07
2019-02-25T20:01:06.222Z,15.20
2019-02-25T20:03:37.584Z,13.70
2019-02-25T20:06:11.236Z,12.43
2019-02-25T20:08:37.861Z,12.27
2019-02-25T20:11:09.242Z,9.13
2019-02-25T20:13:37.792Z,8.97
2019-02-25T20:16:08.197Z,7.30
2019-02-25T20:18:39.698Z,7.50
2019-02-25T20:21:08.921Z,7.93
2019-02-25T20:23:38.214Z,9.20
2019-02-25T20:26:09.442Z,8.63
2019-02-25T20:28:39.110Z,8.43
2019-02-25T20:31:10.098Z,8.47
2019-02-25T20:33:39.959Z,8.13
2019-02-25T20:36:09.181Z,9.30
2019-02-25T20:38:39.692Z,8.53
2019-02-25T20:41:09.130Z,8.83
2019-02-25T20:43:38.319Z,9.07
2019-02-25T20:46:08.672Z,9.43
2019-02-25T20:48:38.006Z,8.97
2019-02-25T20:51:07.782Z,8.10
2019-02-25T20:53:38.165Z,8.87
2019-02-25T20:56:07.583Z,8.00
2019-02-25T20:58:38.358Z,7.60
2019-02-25T21:01:09.350Z,7.87
2019-02-25T21:03:41.504Z,6.10
2019-02-25T21:06:09.862Z,6.07
2019-02-25T21:08:41.885Z,5.77
2019-02-25T21:11:12.859Z,5.30
2019-02-25T21:13:41.845Z,5.87
2019-02-25T21:16:10.953Z,5.73
2019-02-25T21:18:40.227Z,5.70
2019-02-25T21:21:11.878Z,5.23
2019-02-25T21:23:40.496Z,6.03
2019-02-25T21:26:11.403Z,6.03
2019-02-25T21:28:42.726Z,5.93
2019-02-25T21:31:13.892Z,6.03
2019-02-25T21:33:44.822Z,6.10
2019-02-25T21:36:13.123Z,5.57
2019-02-25T21:38:42.404Z,6.40
2019-02-25T21:41:13.271Z,6.53
2019-02-25T21:43:43.553Z,6.93
2019-02-25T21:46:17.569Z,6.07
2019-02-25T21:48:43.944Z,6.27
2019-02-25T21:51:14.210Z,6.60
2019-02-25T21:53:43.520Z,5.97
2019-02-25T21:56:12.695Z,6.17
2019-02-25T21:58:42.944Z,6.23
2019-02-25T22:01:12.587Z,7.00
2019-02-25T22:03:45.851Z,6.73
2019-02-25T22:06:12.684Z,6.43
2019-02-25T22:08:41.904Z,6.70
2019-02-25T22:11:13.203Z,6.90
2019-02-25T22:13:41.854Z,6.70
2019-02-25T22:16:11.039Z,6.17
2019-02-25T22:18:40.246Z,6.60
2019-02-25T22:21:11.593Z,6.13
2019-02-25T22:23:40.083Z,6.73
2019-02-25T22:26:09.252Z,6.60
2019-02-25T22:28:39.442Z,6.47
2019-02-25T22:31:11.005Z,7.30
2019-02-25T22:33:39.600Z,8.03
2019-02-25T22:36:08.965Z,6.13
2019-02-25T22:38:38.085Z,6.33
2019-02-25T22:41:07.273Z,6.93
2019-02-25T22:43:36.811Z,7.13
2019-02-25T22:46:09.211Z,6.77
2019-02-25T22:48:39.760Z,6.83
2019-02-25T22:51:08.575Z,7.67
2019-02-25T22:53:37.694Z,7.53
2019-02-25T22:56:11.435Z,7.47
2019-02-25T22:58:39.027Z,6.93
2019-02-25T23:01:14.354Z,7.80
2019-02-25T23:03:44.934Z,7.20
2019-02-25T23:06:13.555Z,7.73
2019-02-25T23:08:44.277Z,8.30
2019-02-25T23:11:14.433Z,7.83
2019-02-25T23:13:45.714Z,8.47
2019-02-25T23:16:16.429Z,7.27
2019-02-25T23:18:47.800Z,9.93
2019-02-25T23:21:23.425Z,9.07
2019-02-25T23:23:51.231Z,9.97
2019-02-25T23:26:19.864Z,9.03
2019-02-25T23:28:50.584Z,9.50
2019-02-25T23:31:19.676Z,9.27
2019-02-25T23:33:49.400Z,8.80
2019-02-25T23:36:21.645Z,9.23
2019-02-25T23:38:50.682Z,8.70
2019-02-25T23:41:21.126Z,9.20
2019-02-25T23:43:50.420Z,9.70
2019-02-25T23:46:22.904Z,9.40
2019-02-25T23:48:50.457Z,8.53
2019-02-25T23:51:21.696Z,9.53
2019-02-25T23:53:50.935Z,8.63
2019-02-25T23:56:22.889Z,9.73
2019-02-25T23:58:53.545Z,9.50
